Time;durP1;ratioP1;P1;durP2;ratioP2;P2;SDS_P1;SDS_P2;PMS_P1;PMS_P2;Temp;Humidity;BMP_temperature;BMP_pressure;BME280_temperature;BME280_humidity;BME280_pressure;Samples;Min_cycle;Max_cycle;Signal;HPM_P1;HPM_P2
2022/08/10 00:00:20;;;;;;;;;;;16.00;99.90;;;;;;5092947;28;20036;-78
2022/08/10 00:02:57;;;;;;;5.85;4.93;;;15.80;99.90;;;;;;5092525;28;19994;-76
2022/08/10 00:05:24;;;;;;;8.32;5.10;;;15.70;99.90;;;;;;5092358;28;20052;-77
2022/08/10 00:07:50;;;;;;;6.32;4.55;;;15.90;99.90;;;;;;5092269;28;20059;-76
2022/08/10 00:10:18;;;;;;;5.75;4.80;;;16.10;99.90;;;;;;5091774;28;20480;-77
2022/08/10 00:12:44;;;;;;;11.57;5.50;;;15.70;99.90;;;;;;5092159;28;20044;-74
2022/08/10 00:15:13;;;;;;;8.27;6.10;;;15.60;99.90;;;;;;5090791;28;20050;-78
2022/08/10 00:17:39;;;;;;;11.45;6.32;;;15.50;99.90;;;;;;5092234;28;20125;-77
2022/08/10 00:20:05;;;;;;;;;;;15.80;99.90;;;;;;5092910;28;20407;-78
2022/08/10 00:22:30;;;;;;;7.80;6.35;;;15.70;99.90;;;;;;5092094;28;19967;-77
2022/08/10 00:24:56;;;;;;;;;;;15.80;99.90;;;;;;5092281;28;20052;-77
2022/08/10 00:27:27;;;;;;;9.70;7.78;;;15.50;99.90;;;;;;5092319;28;19923;-78
2022/08/10 00:29:53;;;;;;;12.65;8.18;;;15.80;99.90;;;;;;5091943;28;20052;-76
2022/08/10 00:32:19;;;;;;;11.63;8.45;;;15.60;99.90;;;;;;5091925;28;20071;-76
2022/08/10 00:34:44;;;;;;;;;;;15.60;99.90;;;;;;5092318;28;20408;-79
2022/08/10 00:37:11;;;;;;;9.77;6.93;;;15.30;99.90;;;;;;5092045;28;19927;-78
2022/08/10 00:39:37;;;;;;;9.60;6.80;;;15.60;99.90;;;;;;5091406;28;20479;-75
2022/08/10 00:42:07;;;;;;;;;;;15.70;99.90;;;;;;5090905;28;20057;-78
2022/08/10 00:44:33;;;;;;;8.82;6.00;;;15.70;99.90;;;;;;5091955;28;19927;-77
2022/08/10 00:46:59;;;;;;;8.57;6.30;;;15.50;99.90;;;;;;5091884;28;20063;-79
2022/08/10 00:49:26;;;;;;;8.45;7.25;;;15.20;99.90;;;;;;5091798;28;20048;-77
2022/08/10 00:51:52;;;;;;;11.02;8.05;;;15.40;99.90;;;;;;5091890;28;20055;-76
2022/08/10 00:54:18;;;;;;;14.93;9.88;;;15.40;99.90;;;;;;5091315;28;20086;-77
2022/08/10 00:56:44;;;;;;;;;;;15.40;99.90;;;;;;5092278;28;20136;-74
2022/08/10 00:59:10;;;;;;;13.60;9.98;;;15.50;99.90;;;;;;5091840;28;20372;-76
2022/08/10 01:01:36;;;;;;;;;;;15.70;99.90;;;;;;5091989;28;20048;-73
2022/08/10 01:04:03;;;;;;;14.07;9.18;;;15.40;99.90;;;;;;5091743;28;19930;-75
2022/08/10 01:06:56;;;;;;;13.00;9.98;;;15.40;99.90;;;;;;5091586;28;20473;-75
2022/08/10 01:09:25;;;;;;;11.05;9.40;;;15.80;99.90;;;;;;5091641;28;20047;-77
2022/08/10 01:12:01;;;;;;;16.20;10.02;;;15.80;99.90;;;;;;5091695;28;20044;-76
2022/08/10 01:14:30;;;;;;;;;;;15.60;99.90;;;;;;5091981;28;20063;-76
2022/08/10 01:17:04;;;;;;;13.88;9.63;;;15.70;99.90;;;;;;5091524;28;19920;-78
2022/08/10 01:19:54;;;;;;;10.73;8.02;;;15.60;99.90;;;;;;5091424;28;20066;-76
2022/08/10 01:22:45;;;;;;;14.50;9.02;;;15.30;99.90;;;;;;5091183;28;20491;-78
2022/08/10 01:25:46;;;;;;;12.90;10.13;;;15.50;99.90;;;;;;5091499;28;20495;-77
2022/08/10 01:28:36;;;;;;;16.20;11.48;;;15.70;99.90;;;;;;5090480;28;20128;-76
2022/08/10 01:31:04;;;;;;;13.38;9.80;;;15.40;99.90;;;;;;5091036;28;20507;-76
2022/08/10 01:33:34;;;;;;;18.70;10.82;;;15.30;99.90;;;;;;5091314;28;20060;-76
2022/08/10 01:36:13;;;;;;;17.52;10.18;;;15.40;99.90;;;;;;5091007;28;20050;-76
2022/08/10 01:38:44;;;;;;;15.85;10.75;;;15.80;99.90;;;;;;5090440;28;20218;-78
2022/08/10 01:41:20;;;;;;;18.08;11.43;;;15.40;99.90;;;;;;5091452;28;20040;-80
2022/08/10 01:43:55;;;;;;;18.47;11.37;;;15.50;99.90;;;;;;5091520;28;20084;-81
2022/08/10 01:46:23;;;;;;;22.35;12.48;;;15.70;99.90;;;;;;5091131;28;20052;-76
2022/08/10 01:48:52;;;;;;;14.57;10.20;;;15.80;99.90;;;;;;5091277;28;20600;-79
2022/08/10 01:51:20;;;;;;;17.35;11.93;;;15.60;99.90;;;;;;5091141;28;20044;-79
2022/08/10 01:53:56;;;;;;;17.70;10.48;;;15.70;99.90;;;;;;5092992;28;20089;-80
2022/08/10 01:56:25;;;;;;;18.92;10.88;;;15.50;99.90;;;;;;5095040;28;20086;-80
2022/08/10 01:58:57;;;;;;;21.08;12.60;;;15.80;99.90;;;;;;5094659;28;20136;-79
2022/08/10 02:01:27;;;;;;;14.85;10.40;;;15.50;99.90;;;;;;5094987;28;20052;-78
2022/08/10 02:03:56;;;;;;;16.20;11.30;;;15.40;99.90;;;;;;5094973;28;20071;-81
2022/08/10 02:06:26;;;;;;;17.63;11.80;;;15.40;99.90;;;;;;5094288;28;20519;-79
2022/08/10 02:08:53;;;;;;;22.70;11.98;;;15.30;99.90;;;;;;5094599;28;20083;-79
2022/08/10 02:11:22;;;;;;;21.10;12.20;;;15.50;99.90;;;;;;5094436;28;20048;-80
2022/08/10 02:13:48;;;;;;;20.77;12.18;;;15.40;99.90;;;;;;5094626;28;20044;-81
2022/08/10 02:16:18;;;;;;;20.13;12.80;;;15.40;99.90;;;;;;5094693;28;20044;-78
2022/08/10 02:18:44;;;;;;;20.65;11.98;;;15.60;99.90;;;;;;5094675;28;20040;-79
2022/08/10 02:21:11;;;;;;;16.50;11.75;;;15.30;99.90;;;;;;5094022;28;20051;-79
2022/08/10 02:23:38;;;;;;;21.67;12.50;;;15.90;99.90;;;;;;5094263;28;20484;-79
2022/08/10 02:26:07;;;;;;;19.27;12.68;;;15.30;99.90;;;;;;5094264;28;20048;-78
2022/08/10 02:28:34;;;;;;;18.80;12.43;;;15.30;99.90;;;;;;5076388;28;20052;-77
2022/08/10 02:31:21;;;;;;;16.85;12.75;;;15.20;99.90;;;;;;5094206;28;20105;-78
2022/08/10 02:33:49;;;;;;;21.40;12.98;;;15.10;99.90;;;;;;5093825;28;20480;-79
2022/08/10 02:36:16;;;;;;;20.90;12.80;;;15.10;99.90;;;;;;5076103;28;20066;-78
2022/08/10 02:38:48;;;;;;;22.48;12.90;;;15.10;99.90;;;;;;5094016;28;20484;-80
2022/08/10 02:41:23;;;;;;;17.75;12.65;;;15.30;99.90;;;;;;5094119;28;20145;-80
2022/08/10 02:43:53;;;;;;;15.15;10.63;;;15.00;99.90;;;;;;5093985;28;20043;-80
2022/08/10 02:46:27;;;;;;;21.38;12.57;;;14.80;99.90;;;;;;5093933;28;20127;-80
2022/08/10 02:49:03;;;;;;;20.58;13.10;;;14.80;99.90;;;;;;5093592;28;20044;-79
2022/08/10 02:51:41;;;;;;;18.13;12.68;;;14.80;99.90;;;;;;5093855;28;20139;-81
2022/08/10 02:54:14;;;;;;;19.92;13.18;;;15.00;99.90;;;;;;5093907;28;20082;-81
2022/08/10 02:56:52;;;;;;;14.57;11.43;;;15.00;99.90;;;;;;5075985;28;20048;-81
2022/08/10 02:59:31;;;;;;;17.73;12.43;;;14.80;99.90;;;;;;5092642;28;20129;-78
2022/08/10 03:02:01;;;;;;;20.17;12.25;;;14.60;99.90;;;;;;5093744;28;20084;-77
2022/08/10 03:04:33;;;;;;;21.05;12.90;;;15.00;99.90;;;;;;5093128;28;20048;-77
2022/08/10 03:07:03;;;;;;;13.35;10.52;;;14.90;99.90;;;;;;5093438;28;20052;-79
2022/08/10 03:09:32;;;;;;;16.17;10.82;;;14.70;99.90;;;;;;5093409;28;20048;-80
2022/08/10 03:12:00;;;;;;;16.20;10.70;;;14.90;99.90;;;;;;5092246;28;20063;-80
2022/08/10 03:14:27;;;;;;;13.95;10.30;;;15.60;99.90;;;;;;5093716;28;20095;-80
2022/08/10 03:16:55;;;;;;;17.58;11.18;;;14.30;99.90;;;;;;5093338;28;20059;-79
2022/08/10 03:19:24;;;;;;;15.52;9.73;;;14.80;99.90;;;;;;5093128;28;20052;-79
2022/08/10 03:21:51;;;;;;;12.35;9.05;;;14.60;99.90;;;;;;5093200;28;20424;-80
2022/08/10 03:24:21;;;;;;;12.55;8.75;;;14.70;99.90;;;;;;5093067;28;20087;-79
2022/08/10 03:26:49;;;;;;;17.60;10.52;;;14.40;99.90;;;;;;5093095;28;20090;-80
2022/08/10 03:29:19;;;;;;;15.55;10.35;;;14.80;99.90;;;;;;5093057;28;20062;-80
2022/08/10 03:31:46;;;;;;;16.52;9.75;;;14.70;99.90;;;;;;5092922;28;20058;-79
2022/08/10 03:34:14;;;;;;;14.50;10.82;;;14.60;99.90;;;;;;5091879;28;20059;-79
2022/08/10 03:36:39;;;;;;;18.40;11.00;;;14.70;99.90;;;;;;5091757;28;20060;-79
2022/08/10 03:39:05;;;;;;;15.93;11.75;;;14.70;99.90;;;;;;5092718;28;20059;-78
2022/08/10 03:41:42;;;;;;;19.08;12.45;;;14.60;99.90;;;;;;5092903;28;20087;-80
2022/08/10 03:44:09;;;;;;;;;;;14.60;99.90;;;;;;5093417;28;20036;-81
2022/08/10 03:46:39;;;;;;;24.10;14.05;;;14.30;99.90;;;;;;5092587;28;20277;-81
2022/08/10 03:49:06;;;;;;;22.55;14.40;;;14.40;99.90;;;;;;5092892;28;20488;-80
2022/08/10 03:51:34;;;;;;;24.27;13.55;;;14.60;99.90;;;;;;5092644;28;20043;-79
2022/08/10 03:54:01;;;;;;;26.02;15.25;;;14.50;99.90;;;;;;5092812;28;20044;-79
2022/08/10 03:56:28;;;;;;;24.67;14.75;;;14.50;99.90;;;;;;5092561;28;20116;-80
2022/08/10 03:58:55;;;;;;;27.13;15.18;;;14.70;99.90;;;;;;5092403;28;20522;-80
2022/08/10 04:01:21;;;;;;;22.10;13.38;;;14.60;99.90;;;;;;5092264;28;20092;-80
2022/08/10 04:03:47;;;;;;;27.50;15.23;;;14.80;99.90;;;;;;5092600;28;20048;-81
2022/08/10 04:06:13;;;;;;;22.88;14.07;;;14.60;99.90;;;;;;5092574;28;20052;-80
2022/08/10 04:08:40;;;;;;;19.88;14.40;;;14.80;99.90;;;;;;5092972;28;20055;-81
2022/08/10 04:11:07;;;;;;;25.20;14.50;;;14.80;99.90;;;;;;5091298;28;20042;-81
2022/08/10 04:13:33;;;;;;;20.77;13.73;;;14.60;99.90;;;;;;5092499;28;20048;-80
2022/08/10 04:15:59;;;;;;;24.00;13.80;;;14.20;99.90;;;;;;5091692;28;20182;-80
2022/08/10 04:18:24;;;;;;;;;;;14.60;99.90;;;;;;5091730;28;20043;-80
2022/08/10 04:20:59;;;;;;;22.88;14.02;;;14.60;99.90;;;;;;5092171;28;19920;-80
2022/08/10 04:23:30;;;;;;;24.50;14.10;;;14.30;99.90;;;;;;5092531;28;20126;-81
2022/08/10 04:25:56;;;;;;;23.77;13.52;;;15.90;99.90;;;;;;5092317;28;20415;-80
2022/08/10 04:28:25;;;;;;;23.30;13.10;;;14.50;99.90;;;;;;5092279;28;20058;-81
2022/08/10 04:30:52;;;;;;;26.85;14.27;;;14.30;99.90;;;;;;5090410;28;20060;-80
2022/08/10 04:33:21;;;;;;;21.05;13.07;;;14.20;99.90;;;;;;5091976;28;20758;-81
2022/08/10 04:35:48;;;;;;;24.98;13.95;;;14.30;99.90;;;;;;5092025;28;20044;-80
2022/08/10 04:38:15;;;;;;;27.20;14.15;;;14.80;99.90;;;;;;5092077;28;20420;-80
2022/08/10 04:40:43;;;;;;;28.75;15.57;;;14.60;99.90;;;;;;5092037;28;20113;-80
2022/08/10 04:43:08;;;;;;;24.15;14.43;;;14.70;99.90;;;;;;5092029;28;20546;-79
2022/08/10 04:45:34;;;;;;;24.77;15.95;;;15.00;99.90;;;;;;5091718;28;20047;-79
2022/08/10 04:48:00;;;;;;;;;;;14.80;99.90;;;;;;5090945;28;20226;-81
2022/08/10 04:50:26;;;;;;;24.17;14.45;;;15.10;99.90;;;;;;5092013;28;19920;-81
2022/08/10 04:52:52;;;;;;;;;;;15.30;99.90;;;;;;5092221;28;20070;-81
2022/08/10 04:55:17;;;;;;;22.17;14.63;;;14.80;99.90;;;;;;5092123;28;20364;-81
2022/08/10 04:57:43;;;;;;;;;;;15.10;99.90;;;;;;5092208;28;20043;-81
2022/08/10 05:00:09;;;;;;;26.10;14.13;;;15.30;99.90;;;;;;5090326;28;19964;-81
2022/08/10 05:02:35;;;;;;;22.60;14.25;;;15.50;99.90;;;;;;5091703;28;20133;-80
2022/08/10 05:05:00;;;;;;;23.05;13.63;;;15.30;99.90;;;;;;5091781;28;20083;-81
2022/08/10 05:07:26;;;;;;;20.75;13.90;;;15.60;99.90;;;;;;5091964;28;20051;-80
2022/08/10 05:09:55;;;;;;;;;;;15.70;99.90;;;;;;5092192;28;20494;-80
2022/08/10 05:12:21;;;;;;;17.45;12.25;;;15.70;99.90;;;;;;5091804;28;19924;-81
2022/08/10 05:14:47;;;;;;;18.70;13.65;;;15.50;99.90;;;;;;5091397;28;20150;-82
2022/08/10 05:17:13;;;;;;;;;;;15.80;99.90;;;;;;5092061;28;20048;-81
2022/08/10 05:19:39;;;;;;;22.40;13.13;;;16.00;99.90;;;;;;5091879;28;19931;-81
2022/08/10 05:22:05;;;;;;;20.00;12.43;;;16.00;99.90;;;;;;5091678;28;20044;-84
2022/08/10 05:24:31;;;;;;;19.83;12.07;;;16.10;99.90;;;;;;5091798;28;20036;-82
2022/08/10 05:26:56;;;;;;;;;;;16.30;99.90;;;;;;5092132;28;20055;-82
2022/08/10 05:29:22;;;;;;;21.65;11.88;;;16.50;99.90;;;;;;5092754;28;19934;-83
2022/08/10 05:31:48;;;;;;;;;;;16.30;99.90;;;;;;5095723;28;20055;-81
2022/08/10 05:34:15;;;;;;;17.85;11.55;;;16.40;99.90;;;;;;5095537;28;19988;-81
2022/08/10 05:36:41;;;;;;;15.43;10.98;;;16.80;99.90;;;;;;5095371;28;20076;-81
2022/08/10 05:39:06;;;;;;;;;;;16.80;99.90;;;;;;5095796;28;20046;-82
2022/08/10 05:41:34;;;;;;;18.58;10.98;;;17.00;99.90;;;;;;5095356;28;19928;-81
2022/08/10 05:43:59;;;;;;;14.82;11.45;;;17.10;99.90;;;;;;5092754;28;20091;-81
2022/08/10 05:46:25;;;;;;;;;;;17.10;99.90;;;;;;5089070;28;20534;-82
2022/08/10 05:48:51;;;;;;;13.68;10.55;;;16.90;99.90;;;;;;5093150;28;19923;-82
2022/08/10 05:51:17;;;;;;;17.00;11.07;;;17.30;99.90;;;;;;5092536;28;20036;-82
2022/08/10 05:53:43;;;;;;;;;;;17.20;99.90;;;;;;5092767;28;20063;-80
2022/08/10 05:56:10;;;;;;;17.52;9.82;;;17.20;99.90;;;;;;5092964;28;20401;-81
2022/08/10 05:58:37;;;;;;;13.93;9.48;;;17.40;99.90;;;;;;5093269;28;20108;-81
2022/08/10 06:01:13;;;;;;;14.27;9.88;;;17.70;99.90;;;;;;5092450;28;20044;-78
2022/08/10 06:03:46;;;;;;;15.27;9.07;;;17.70;99.90;;;;;;5092481;28;20978;-82
2022/08/10 06:06:16;;;;;;;10.32;7.63;;;17.80;99.90;;;;;;5092393;28;20044;-81
2022/08/10 06:08:45;;;;;;;16.02;8.05;;;17.70;99.90;;;;;;5093147;28;20044;-80
2022/08/10 06:11:13;;;;;;;10.05;8.23;;;18.20;99.90;;;;;;5092637;28;20471;-79
2022/08/10 06:16:31;;;;;;;11.63;8.32;;;18.20;99.90;;;;;;5089399;28;20064;-78
2022/08/10 06:18:58;;;;;;;10.23;8.10;;;18.30;99.90;;;;;;5093035;28;20123;-75
2022/08/10 06:21:25;;;;;;;16.60;9.00;;;18.10;99.90;;;;;;5093101;28;20056;-80
2022/08/10 06:23:52;;;;;;;11.35;8.07;;;18.30;99.90;;;;;;5091565;28;20048;-73
2022/08/10 06:26:18;;;;;;;9.23;6.75;;;18.50;99.90;;;;;;5087964;28;20062;-78
2022/08/10 06:28:52;;;;;;;9.43;7.30;;;18.70;99.90;;;;;;5092485;28;20404;-75
2022/08/10 06:31:18;;;;;;;8.77;7.30;;;18.70;99.90;;;;;;5088497;28;20056;-79
2022/08/10 06:33:45;;;;;;;10.15;7.18;;;18.70;99.90;;;;;;5093001;28;20052;-73
2022/08/10 06:36:12;;;;;;;6.97;5.85;;;18.70;99.90;;;;;;5090447;28;20411;-77
2022/08/10 06:38:39;;;;;;;9.68;6.15;;;18.90;99.90;;;;;;5091801;28;20105;-73
2022/08/10 06:41:17;;;;;;;10.23;6.65;;;18.90;99.90;;;;;;5092350;28;20499;-78
2022/08/10 06:43:48;;;;;;;6.57;5.38;;;19.20;99.90;;;;;;5092677;28;20083;-74
2022/08/10 06:46:18;;;;;;;8.95;4.70;;;19.00;99.90;;;;;;5091493;28;21083;-75
2022/08/10 06:48:54;;;;;;;7.60;4.57;;;19.30;99.90;;;;;;5087454;28;20059;-74
2022/08/10 06:51:24;;;;;;;9.88;5.55;;;19.50;99.90;;;;;;5089744;28;20072;-71
2022/08/10 06:53:58;;;;;;;8.60;5.50;;;19.50;99.90;;;;;;5090060;28;20052;-73
2022/08/10 06:56:26;;;;;;;26.08;6.57;;;19.40;99.90;;;;;;5092956;28;20118;-78
2022/08/10 06:58:55;;;;;;;9.23;5.28;;;19.30;99.90;;;;;;5091291;28;20503;-71
2022/08/10 07:01:25;;;;;;;7.80;4.80;;;19.70;99.90;;;;;;5072710;28;20373;-73
2022/08/10 07:04:14;;;;;;;8.93;4.90;;;19.90;99.90;;;;;;5104281;28;20059;-80
2022/08/10 07:06:43;;;;;;;6.80;4.50;;;19.90;99.90;;;;;;5071291;28;20053;-80
2022/08/10 07:09:12;;;;;;;9.00;4.82;;;20.00;99.90;;;;;;5071530;28;20131;-79
2022/08/10 07:11:40;;;;;;;5.30;3.83;;;19.90;99.90;;;;;;5071937;28;20404;-80
2022/08/10 07:14:07;;;;;;;8.65;4.70;;;20.10;99.90;;;;;;5073055;28;20187;-73
2022/08/10 07:16:35;;;;;;;8.35;4.63;;;20.00;99.90;;;;;;5072947;28;20049;-77
2022/08/10 07:19:04;;;;;;;6.13;4.80;;;19.90;99.90;;;;;;5072868;28;20123;-75
2022/08/10 07:21:31;;;;;;;9.23;4.35;;;20.10;99.90;;;;;;5073066;28;20045;-76
2022/08/10 07:24:00;;;;;;;7.60;4.32;;;20.40;99.90;;;;;;5072715;28;20070;-79
2022/08/10 07:26:29;;;;;;;9.18;4.15;;;20.20;99.90;;;;;;5072805;28;20044;-79
2022/08/10 07:28:56;;;;;;;7.07;3.45;;;20.10;99.90;;;;;;5072604;28;20048;-76
2022/08/10 07:31:23;;;;;;;8.85;2.90;;;20.60;99.90;;;;;;5105305;28;20102;-73
2022/08/10 07:33:52;;;;;;;7.85;3.28;;;20.40;99.90;;;;;;5072656;28;20049;-78
2022/08/10 07:36:20;;;;;;;5.03;3.40;;;20.40;99.90;;;;;;5073022;28;20044;-69
2022/08/10 07:38:49;;;;;;;8.82;3.70;;;20.30;99.90;;;;;;5089052;28;20072;-73
2022/08/10 07:41:18;;;;;;;6.68;3.70;;;20.80;99.90;;;;;;5091923;28;20040;-66
2022/08/10 07:43:46;;;;;;;4.28;3.47;;;20.90;99.90;;;;;;5092214;28;20040;-70
2022/08/10 07:46:14;;;;;;;5.07;3.60;;;20.50;99.90;;;;;;5092569;28;20047;-82
2022/08/10 07:48:45;;;;;;;6.75;3.67;;;20.90;99.90;;;;;;5091462;28;20105;-76
2022/08/10 07:51:12;;;;;;;6.53;4.05;;;20.70;99.90;;;;;;5091680;28;20044;-71
2022/08/10 07:53:42;;;;;;;5.90;3.70;;;20.70;99.90;;;;;;5091590;28;20105;-71
2022/08/10 07:56:09;;;;;;;4.30;3.30;;;21.00;99.90;;;;;;5092132;28;20048;-69
2022/08/10 07:58:39;;;;;;;6.30;3.70;;;21.10;99.90;;;;;;5092041;28;20105;-70
2022/08/10 08:01:05;;;;;;;10.88;3.97;;;21.00;99.90;;;;;;5091982;28;20388;-72
2022/08/10 08:03:32;;;;;;;7.05;3.65;;;20.70;99.90;;;;;;5089517;28;20046;-75
2022/08/10 08:06:00;;;;;;;6.20;4.40;;;21.00;99.90;;;;;;5090720;28;20403;-69
2022/08/10 08:08:28;;;;;;;7.70;4.22;;;21.30;99.90;;;;;;5090289;28;20048;-74
2022/08/10 08:10:54;;;;;;;7.40;3.88;;;21.60;99.90;;;;;;5089902;28;20055;-77
2022/08/10 08:13:21;;;;;;;5.68;4.00;;;21.80;99.90;;;;;;5091039;28;20055;-76
2022/08/10 08:15:50;;;;;;;11.70;4.10;;;21.60;99.90;;;;;;5090455;28;20048;-67
2022/08/10 08:18:17;;;;;;;4.68;3.63;;;21.70;99.90;;;;;;5089450;28;20518;-72
2022/08/10 08:20:44;;;;;;;6.75;3.83;;;21.50;99.90;;;;;;5091965;28;20036;-74
2022/08/10 08:23:12;;;;;;;7.40;3.70;;;21.60;99.90;;;;;;5091988;28;20173;-76
2022/08/10 08:25:39;;;;;;;7.47;4.07;;;21.80;99.90;;;;;;5091999;28;20131;-71
2022/08/10 08:28:08;;;;;;;8.70;4.45;;;21.90;99.90;;;;;;5092084;28;20044;-70
2022/08/10 08:30:34;;;;;;;5.47;3.72;;;22.00;99.90;;;;;;5091526;28;20127;-70
2022/08/10 08:33:01;;;;;;;6.47;4.13;;;21.90;99.90;;;;;;5091875;28;20051;-73
2022/08/10 08:35:26;;;;;;;6.43;3.90;;;21.70;99.90;;;;;;5090544;28;20044;-74
2022/08/10 08:37:54;;;;;;;8.38;4.20;;;22.00;99.90;;;;;;5091712;28;20511;-71
2022/08/10 08:40:26;;;;;;;6.30;3.90;;;22.40;99.90;;;;;;5090986;28;20385;-74
2022/08/10 08:43:16;;;;;;;8.27;4.07;;;22.10;99.90;;;;;;5086919;28;20046;-75
2022/08/10 08:45:56;;;;;;;6.80;4.03;;;22.20;99.90;;;;;;5089221;28;20124;-66
2022/08/10 08:48:47;;;;;;;7.30;3.72;;;22.30;99.90;;;;;;5086205;28;20052;-69
2022/08/10 08:51:34;;;;;;;6.72;3.72;;;22.30;99.90;;;;;;5088352;28;20097;-76
2022/08/10 08:54:27;;;;;;;6.85;3.80;;;22.40;99.90;;;;;;5087502;28;20106;-73
2022/08/10 08:57:16;;;;;;;6.47;4.05;;;22.50;99.90;;;;;;5086334;28;20044;-72
2022/08/10 09:00:04;;;;;;;5.90;4.07;;;22.40;99.90;;;;;;5088674;28;20044;-67
2022/08/10 09:02:48;;;;;;;6.63;3.63;;;22.20;99.90;;;;;;5088835;28;20044;-70
2022/08/10 09:05:55;;;;;;;6.40;4.40;;;22.50;99.90;;;;;;5093616;28;20048;-69
2022/08/10 09:08:36;;;;;;;6.03;4.03;;;22.60;99.90;;;;;;5089763;28;20084;-67
2022/08/10 09:11:34;;;;;;;8.93;3.58;;;23.10;99.90;;;;;;5091112;28;20048;-70
2022/08/10 09:14:07;;;;;;;6.57;4.32;;;22.90;99.90;;;;;;5090116;28;20048;-68
2022/08/10 09:17:02;;;;;;;6.93;4.25;;;22.90;99.90;;;;;;5090954;28;20086;-71
2022/08/10 09:19:54;;;;;;;6.07;3.80;;;23.20;99.90;;;;;;5093080;28;20057;-68
2022/08/10 09:22:28;;;;;;;6.00;3.58;;;23.20;99.90;;;;;;5094227;28;20769;-66
2022/08/10 09:25:21;;;;;;;6.95;4.10;;;23.40;99.90;;;;;;5094160;28;20139;-68
2022/08/10 09:27:55;;;;;;;7.93;3.80;;;23.50;99.90;;;;;;5091037;28;20055;-71
2022/08/10 09:30:31;;;;;;;8.65;4.38;;;23.60;99.90;;;;;;5093498;28;20444;-72
2022/08/10 09:33:08;;;;;;;5.82;4.07;;;23.90;99.90;;;;;;5093902;28;20048;-71
2022/08/10 09:36:10;;;;;;;5.95;4.68;;;23.70;99.90;;;;;;5093267;28;20047;-70
2022/08/10 09:38:56;;;;;;;8.60;4.20;;;23.90;99.90;;;;;;5093840;28;20059;-73
2022/08/10 09:41:54;;;;;;;7.82;3.53;;;23.80;99.90;;;;;;5091189;28;20446;-69
2022/08/10 09:44:43;;;;;;;10.38;4.13;;;23.80;99.90;;;;;;5090570;28;20044;-71
2022/08/10 09:47:46;;;;;;;12.68;4.50;;;23.90;99.90;;;;;;5093658;28;20071;-69
2022/08/10 09:50:20;;;;;;;9.93;4.60;;;24.20;99.90;;;;;;5092946;28;20079;-73
2022/08/10 09:53:09;;;;;;;6.65;4.22;;;24.30;99.90;;;;;;5089783;28;20182;-69
2022/08/10 09:56:06;;;;;;;6.55;4.45;;;24.20;99.90;;;;;;5091820;28;20101;-71
2022/08/10 09:59:09;;;;;;;5.00;3.70;;;24.10;99.90;;;;;;5090306;28;20480;-66
2022/08/10 10:01:50;;;;;;;7.63;4.43;;;24.60;99.90;;;;;;5091341;28;20418;-72
2022/08/10 10:04:23;;;;;;;10.80;4.18;;;24.40;99.90;;;;;;5092392;28;20530;-65
2022/08/10 10:06:55;;;;;;;6.03;3.90;;;24.60;99.90;;;;;;5093409;28;20055;-73
2022/08/10 10:09:30;;;;;;;4.63;3.50;;;24.50;99.90;;;;;;5091265;28;20055;-68
2022/08/10 10:12:05;;;;;;;5.63;3.73;;;24.50;99.90;;;;;;5089501;28;20105;-70
2022/08/10 10:15:20;;;;;;;6.45;3.47;;;24.50;99.90;;;;;;5088951;28;20043;-70
2022/08/10 10:18:01;;;;;;;10.30;4.63;;;24.90;99.90;;;;;;5074734;28;20127;-74
2022/08/10 10:20:33;;;;;;;9.80;4.18;;;24.50;99.90;;;;;;5077843;28;20071;-74
2022/08/10 10:23:24;;;;;;;6.88;4.38;;;24.50;99.90;;;;;;5073212;28;20512;-79
2022/08/10 10:25:54;;;;;;;6.78;3.97;;;24.80;99.90;;;;;;5073031;28;20056;-73
2022/08/10 10:28:42;;;;;;;7.75;3.50;;;24.60;99.90;;;;;;5073363;28;20060;-71
2022/08/10 10:31:37;;;;;;;7.93;3.80;;;25.10;99.90;;;;;;5073081;28;20052;-77
2022/08/10 10:34:12;;;;;;;7.15;4.50;;;24.60;99.90;;;;;;5064723;28;20044;-81
2022/08/10 10:36:41;;;;;;;7.00;4.30;;;24.90;99.90;;;;;;5074407;28;20104;-80
2022/08/10 10:39:09;;;;;;;6.85;4.30;;;24.70;99.90;;;;;;5092660;28;20534;-79
2022/08/10 10:41:42;;;;;;;7.97;5.40;;;24.80;99.90;;;;;;5092054;28;20051;-75
2022/08/10 10:44:34;;;;;;;9.77;5.35;;;24.90;99.90;;;;;;5091619;28;20558;-79
2022/08/10 10:47:45;;;;;;;9.60;4.95;;;24.80;99.90;;;;;;5088554;28;20116;-78
2022/08/10 10:50:18;;;;;;;5.57;3.83;;;25.00;99.90;;;;;;5075091;28;20060;-75
2022/08/10 10:53:01;;;;;;;8.70;5.50;;;24.90;99.90;;;;;;5088584;28;20090;-72
2022/08/10 10:55:53;;;;;;;6.78;4.53;;;24.90;99.90;;;;;;5091659;28;20051;-74
2022/08/10 10:58:27;;;;;;;7.35;4.70;;;25.20;99.90;;;;;;5089795;28;20040;-80
2022/08/10 11:01:00;;;;;;;6.63;4.47;;;25.30;99.90;;;;;;5091088;28;20048;-79
2022/08/10 11:03:31;;;;;;;6.85;5.15;;;25.00;99.90;;;;;;5091706;28;20491;-79
2022/08/10 11:06:17;;;;;;;8.30;4.38;;;25.30;99.90;;;;;;5089117;28;20047;-74
2022/08/10 11:08:49;;;;;;;5.65;4.40;;;24.80;99.90;;;;;;5087817;28;20130;-74
2022/08/10 11:11:22;;;;;;;6.45;4.38;;;25.30;99.90;;;;;;5070505;28;20084;-76
2022/08/10 11:14:17;;;;;;;10.02;4.82;;;25.10;99.90;;;;;;5071983;28;20102;-77
2022/08/10 11:17:01;;;;;;;6.05;4.20;;;25.70;99.90;;;;;;5072712;28;20392;-78
2022/08/10 11:19:38;;;;;;;11.02;3.92;;;25.50;99.90;;;;;;5072925;28;20044;-73
2022/08/10 11:22:20;;;;;;;5.45;4.30;;;25.60;99.90;;;;;;5072898;28;20094;-79
2022/08/10 11:25:00;;;;;;;5.00;3.67;;;25.40;99.90;;;;;;5085280;28;20044;-77
2022/08/10 11:27:38;;;;;;;5.50;3.50;;;25.70;99.90;;;;;;5092973;28;20079;-75
2022/08/10 11:30:07;;;;;;;5.50;3.70;;;25.60;99.90;;;;;;5092378;28;20487;-79
2022/08/10 11:32:59;;;;;;;4.50;3.05;;;25.70;99.90;;;;;;5089595;28;20101;-78
2022/08/10 11:35:52;;;;;;;7.95;3.50;;;25.70;99.90;;;;;;5092574;28;20059;-71
2022/08/10 11:38:59;;;;;;;7.47;3.70;;;27.60;99.90;;;;;;5091637;28;20122;-76
2022/08/10 11:41:39;;;;;;;6.33;3.10;;;26.00;99.90;;;;;;5090058;28;20048;-76
2022/08/10 11:44:28;;;;;;;8.45;3.45;;;25.70;99.90;;;;;;5092682;28;20488;-71
2022/08/10 11:47:06;;;;;;;7.20;3.50;;;25.80;99.90;;;;;;5085012;28;20090;-79
2022/08/10 11:49:44;;;;;;;5.78;3.10;;;25.90;99.90;;;;;;5091757;28;20052;-69
2022/08/10 11:52:19;;;;;;;5.93;2.80;;;26.20;99.90;;;;;;5091828;28;20048;-77
2022/08/10 11:54:51;;;;;;;4.33;2.87;;;26.20;99.90;;;;;;5091826;28;20399;-74
2022/08/10 11:57:17;;;;;;;5.05;3.75;;;26.30;99.90;;;;;;5091813;28;20341;-74
2022/08/10 11:59:55;;;;;;;5.35;2.85;;;26.30;99.90;;;;;;5090634;28;20121;-74
2022/08/10 12:02:25;;;;;;;9.13;2.70;;;26.10;99.90;;;;;;5091539;28;20055;-70
2022/08/10 12:05:10;;;;;;;5.95;2.80;;;26.60;99.90;;;;;;5091668;28;20044;-70
2022/08/10 12:07:44;;;;;;;6.53;2.70;;;26.60;99.90;;;;;;5091679;28;20044;-76
2022/08/10 12:10:11;;;;;;;5.53;2.78;;;26.30;99.90;;;;;;5091336;28;20048;-74
2022/08/10 12:13:00;;;;;;;4.57;2.60;;;26.60;99.90;;;;;;5089887;28;20090;-75
2022/08/10 12:15:39;;;;;;;4.97;2.88;;;26.30;99.90;;;;;;5090837;28;20530;-75
2022/08/10 12:18:13;;;;;;;6.35;2.95;;;26.50;99.90;;;;;;5091937;28;20432;-75
2022/08/10 12:20:42;;;;;;;5.63;2.50;;;26.50;99.90;;;;;;5091739;28;20456;-75
2022/08/10 12:23:21;;;;;;;5.57;3.08;;;26.80;99.90;;;;;;5091559;28;20582;-79
2022/08/10 12:25:50;;;;;;;4.15;2.30;;;26.50;99.90;;;;;;5088987;28;20059;-73
2022/08/10 12:28:54;;;;;;;6.43;2.25;;;26.30;99.90;;;;;;5090829;28;20135;-68
2022/08/10 12:31:29;;;;;;;5.95;2.70;;;26.60;99.90;;;;;;5091217;28;20101;-76
2022/08/10 12:34:22;;;;;;;4.03;2.40;;;26.60;99.90;;;;;;5091663;28;20080;-76
2022/08/10 12:36:59;;;;;;;5.40;2.20;;;26.40;99.90;;;;;;5069316;28;20056;-75
2022/08/10 12:39:28;;;;;;;7.53;2.55;;;26.80;99.90;;;;;;5091961;28;20040;-74
2022/08/10 12:42:11;;;;;;;4.70;2.60;;;26.70;99.90;;;;;;5091793;28;20044;-77
2022/08/10 12:44:52;;;;;;;6.45;2.63;;;26.70;99.90;;;;;;5091498;28;20476;-76
2022/08/10 12:47:43;;;;;;;10.45;2.28;;;26.90;99.90;;;;;;5091758;28;20048;-77
2022/08/10 12:50:29;;;;;;;3.60;1.95;;;27.10;99.90;;;;;;5090456;28;20085;-73
2022/08/10 12:53:04;;;;;;;4.93;2.10;;;27.00;99.90;;;;;;5091724;28;20059;-74
2022/08/10 12:55:32;;;;;;;6.03;2.13;;;26.80;99.90;;;;;;5091517;28;20044;-75
2022/08/10 12:57:59;;;;;;;3.72;1.90;;;26.80;99.90;;;;;;5091388;28;20052;-74
2022/08/10 13:00:34;;;;;;;4.70;2.08;;;27.20;99.90;;;;;;5091477;28;20042;-69
2022/08/10 13:03:04;;;;;;;4.13;2.15;;;27.30;99.90;;;;;;5091664;28;20050;-75
2022/08/10 13:05:32;;;;;;;7.03;2.30;;;27.10;99.90;;;;;;5091984;28;20070;-73
2022/08/10 13:11:00;;;;;;;4.57;2.33;;;27.40;99.90;;;;;;5090269;28;20078;-76
2022/08/10 13:13:34;;;;;;;4.72;1.90;;;27.10;99.90;;;;;;5090741;28;20047;-75
2022/08/10 13:16:01;;;;;;;6.18;2.03;;;27.40;99.90;;;;;;5091769;28;20040;-70
2022/08/10 13:18:33;;;;;;;5.97;1.90;;;27.20;99.90;;;;;;5091630;28;20086;-73
2022/08/10 13:21:07;;;;;;;5.35;2.40;;;27.10;99.90;;;;;;5090497;28;20052;-73